Youngtown, AZ

10:17 AM MST on February 27, 2015 (GMT -0700)
Sun Dial I | Change Station
CLOSE
Current Station
Personal Weather Station
Location: El Mirage, AZ
Elevation: 1115 ft
Nearby Weather Stations

Elev 1115 ft 33.60 °N, 112.32 °W | Updated 44 seconds ago

Clear
Clear
64.0 °F
Feels Like 64.0 °F
N
0.0
Wind Variable Wind from SW
Gusts 2.7 mph

Today
High -- | Low -- °F
--% Chance of Precip.
Yesterday
High -- | Low -- °F
Precip. -- in
7:00 AM 6:24 PM
Waxing Gibbous, 70% visible
Pressure 29.79 in
Visibility 20.0 miles
Clouds Scattered Clouds 20000 ft
Dew Point 36 °F
Humidity 35%
Rainfall 0.00 in
Snow Depth Not available.
UV 3 out of 12
Pollen 9.50 out of 12
Air Quality Not available.
Flu Activity Not available.
METAR KGEU 271647Z VRB04KT 20SM SCT200 15/00 A2979

More Conditions Fewer Conditions

Pressure 29.79 in
Visibility 20.0 miles
Clouds Scattered Clouds 20000 ft
Dew Point 36 °F
Humidity 35%
Rainfall 0.00 in
Snow Depth Not available.
UV 3 out of 12
Pollen 9.50 out of 12
Air Quality Not available.
Flu Activity Not available.
METAR KGEU 271647Z VRB04KT 20SM SCT200 15/00 A2979

More Conditions Fewer Conditions

10-Day Weather Forecast

Almanac

Astronomy

Feb. 27, 2015 Rise Set
Actual Time
Civil Twilight
Nautical Twilight
Astronomical Twilight
Moon
Length of Visible Light
Length of Day
Tomorrow will be .
, % of the Moon is Illuminated

Today's Extremes

State Highs State Lows

Community

WunderPhotos

Upload Photos

1,800,746 photos uploaded!

WunderBlogs® & News

Nearby

Air Quality

  Air Quality AQ Index Pollutant
Not available.

Snow Depth

Station Depth Elevation

Earthquake Activity

City Distance Mag. Time & Date
Minimum magnitude displayed is 2.5.

Coastal Water Temperatures

Place Temperature

Nearby Weather Stations